sensor_id;sensor_type;location;lat;lon;timestamp;P1;durP1;ratioP1;P2;durP2;ratioP2
37891;SDS011;45797;47.466;9.486;2023-01-09T00:03:37;5.40;;;2.63;;
37891;SDS011;45797;47.466;9.486;2023-01-09T00:13:42;5.43;;;2.53;;
37891;SDS011;45797;47.466;9.486;2023-01-09T00:24:17;4.40;;;2.42;;
37891;SDS011;45797;47.466;9.486;2023-01-09T00:34:23;5.53;;;2.60;;
37891;SDS011;45797;47.466;9.486;2023-01-09T00:45:02;4.78;;;2.30;;
37891;SDS011;45797;47.466;9.486;2023-01-09T00:50:12;4.05;;;2.00;;
37891;SDS011;45797;47.466;9.486;2023-01-09T00:55:33;5.78;;;2.00;;
37891;SDS011;45797;47.466;9.486;2023-01-09T01:00:47;3.95;;;1.80;;
37891;SDS011;45797;47.466;9.486;2023-01-09T01:06:03;3.70;;;1.92;;
37891;SDS011;45797;47.466;9.486;2023-01-09T01:22:28;3.15;;;1.48;;
37891;SDS011;45797;47.466;9.486;2023-01-09T01:27:44;4.38;;;1.45;;
37891;SDS011;45797;47.466;9.486;2023-01-09T01:32:45;2.58;;;1.20;;
37891;SDS011;45797;47.466;9.486;2023-01-09T01:49:12;1.20;;;0.60;;
37891;SDS011;45797;47.466;9.486;2023-01-09T01:54:22;0.50;;;0.40;;
37891;SDS011;45797;47.466;9.486;2023-01-09T01:59:26;0.68;;;0.40;;
37891;SDS011;45797;47.466;9.486;2023-01-09T02:04:38;1.27;;;0.68;;
37891;SDS011;45797;47.466;9.486;2023-01-09T02:20:42;1.33;;;0.60;;
37891;SDS011;45797;47.466;9.486;2023-01-09T02:26:22;1.40;;;0.50;;
37891;SDS011;45797;47.466;9.486;2023-01-09T02:59:09;0.65;;;0.30;;
37891;SDS011;45797;47.466;9.486;2023-01-09T03:04:36;0.32;;;0.30;;
37891;SDS011;45797;47.466;9.486;2023-01-09T03:10:00;0.30;;;0.30;;
37891;SDS011;45797;47.466;9.486;2023-01-09T03:15:15;0.52;;;0.52;;
37891;SDS011;45797;47.466;9.486;2023-01-09T03:20:22;0.65;;;0.30;;
37891;SDS011;45797;47.466;9.486;2023-01-09T03:25:36;0.30;;;0.30;;
37891;SDS011;45797;47.466;9.486;2023-01-09T03:30:38;0.30;;;0.30;;
37891;SDS011;45797;47.466;9.486;2023-01-09T03:35:51;2.28;;;0.40;;
37891;SDS011;45797;47.466;9.486;2023-01-09T03:41:08;0.98;;;0.40;;
37891;SDS011;45797;47.466;9.486;2023-01-09T03:46:08;0.45;;;0.40;;
37891;SDS011;45797;47.466;9.486;2023-01-09T03:51:10;1.55;;;0.30;;
37891;SDS011;45797;47.466;9.486;2023-01-09T03:56:20;0.30;;;0.30;;
37891;SDS011;45797;47.466;9.486;2023-01-09T04:01:21;1.77;;;0.30;;
37891;SDS011;45797;47.466;9.486;2023-01-09T04:11:43;0.30;;;0.30;;
37891;SDS011;45797;47.466;9.486;2023-01-09T04:21:53;0.20;;;0.20;;
37891;SDS011;45797;47.466;9.486;2023-01-09T04:26:55;0.22;;;0.22;;
37891;SDS011;45797;47.466;9.486;2023-01-09T04:31:56;0.30;;;0.30;;
37891;SDS011;45797;47.466;9.486;2023-01-09T04:37:12;0.20;;;0.20;;
37891;SDS011;45797;47.466;9.486;2023-01-09T04:42:13;0.20;;;0.20;;
37891;SDS011;45797;47.466;9.486;2023-01-09T04:47:13;0.20;;;0.20;;
37891;SDS011;45797;47.466;9.486;2023-01-09T04:52:15;0.20;;;0.20;;
37891;SDS011;45797;47.466;9.486;2023-01-09T04:57:16;0.30;;;0.30;;
37891;SDS011;45797;47.466;9.486;2023-01-09T05:07:44;0.30;;;0.30;;
37891;SDS011;45797;47.466;9.486;2023-01-09T05:12:44;0.30;;;0.30;;
37891;SDS011;45797;47.466;9.486;2023-01-09T05:17:53;0.52;;;0.40;;
37891;SDS011;45797;47.466;9.486;2023-01-09T05:22:53;0.30;;;0.30;;
37891;SDS011;45797;47.466;9.486;2023-01-09T05:27:59;0.30;;;0.30;;
37891;SDS011;45797;47.466;9.486;2023-01-09T05:33:00;0.63;;;0.40;;
37891;SDS011;45797;47.466;9.486;2023-01-09T05:43:20;0.30;;;0.30;;
37891;SDS011;45797;47.466;9.486;2023-01-09T05:48:20;0.38;;;0.30;;
37891;SDS011;45797;47.466;9.486;2023-01-09T05:53:22;0.30;;;0.30;;
37891;SDS011;45797;47.466;9.486;2023-01-09T05:58:29;0.30;;;0.30;;
37891;SDS011;45797;47.466;9.486;2023-01-09T06:08:33;1.73;;;0.43;;
37891;SDS011;45797;47.466;9.486;2023-01-09T06:13:36;0.40;;;0.40;;
37891;SDS011;45797;47.466;9.486;2023-01-09T06:24:03;0.30;;;0.30;;
37891;SDS011;45797;47.466;9.486;2023-01-09T06:29:16;0.30;;;0.30;;
37891;SDS011;45797;47.466;9.486;2023-01-09T06:34:17;0.30;;;0.30;;
37891;SDS011;45797;47.466;9.486;2023-01-09T06:39:24;0.57;;;0.35;;
37891;SDS011;45797;47.466;9.486;2023-01-09T06:44:25;0.30;;;0.30;;
37891;SDS011;45797;47.466;9.486;2023-01-09T06:49:31;0.35;;;0.30;;
37891;SDS011;45797;47.466;9.486;2023-01-09T06:59:58;1.75;;;0.47;;
37891;SDS011;45797;47.466;9.486;2023-01-09T07:10:06;0.40;;;0.40;;
37891;SDS011;45797;47.466;9.486;2023-01-09T07:15:17;0.30;;;0.30;;
37891;SDS011;45797;47.466;9.486;2023-01-09T07:20:20;3.05;;;0.50;;
37891;SDS011;45797;47.466;9.486;2023-01-09T07:25:22;3.03;;;0.60;;
37891;SDS011;45797;47.466;9.486;2023-01-09T07:35:25;1.05;;;0.50;;
37891;SDS011;45797;47.466;9.486;2023-01-09T07:40:25;0.25;;;0.25;;
37891;SDS011;45797;47.466;9.486;2023-01-09T07:45:27;0.30;;;0.30;;
37891;SDS011;45797;47.466;9.486;2023-01-09T07:50:27;7.22;;;0.43;;
37891;SDS011;45797;47.466;9.486;2023-01-09T07:55:28;3.10;;;0.40;;
37891;SDS011;45797;47.466;9.486;2023-01-09T08:05:49;0.43;;;0.40;;
37891;SDS011;45797;47.466;9.486;2023-01-09T08:11:00;0.30;;;0.30;;
37891;SDS011;45797;47.466;9.486;2023-01-09T08:16:02;0.75;;;0.40;;
37891;SDS011;45797;47.466;9.486;2023-01-09T08:21:03;0.40;;;0.40;;
37891;SDS011;45797;47.466;9.486;2023-01-09T08:26:04;0.35;;;0.32;;
37891;SDS011;45797;47.466;9.486;2023-01-09T08:31:05;0.88;;;0.50;;
37891;SDS011;45797;47.466;9.486;2023-01-09T08:36:07;2.17;;;0.43;;
37891;SDS011;45797;47.466;9.486;2023-01-09T08:41:09;0.70;;;0.43;;
37891;SDS011;45797;47.466;9.486;2023-01-09T08:46:27;0.80;;;0.45;;
37891;SDS011;45797;47.466;9.486;2023-01-09T08:51:48;0.30;;;0.30;;
37891;SDS011;45797;47.466;9.486;2023-01-09T08:56:51;1.73;;;0.50;;
37891;SDS011;45797;47.466;9.486;2023-01-09T09:01:53;0.30;;;0.30;;
37891;SDS011;45797;47.466;9.486;2023-01-09T09:07:00;0.30;;;0.30;;
37891;SDS011;45797;47.466;9.486;2023-01-09T09:12:02;2.00;;;0.32;;
37891;SDS011;45797;47.466;9.486;2023-01-09T09:17:04;0.20;;;0.20;;
37891;SDS011;45797;47.466;9.486;2023-01-09T09:22:05;0.43;;;0.40;;
37891;SDS011;45797;47.466;9.486;2023-01-09T09:32:09;0.30;;;0.30;;
37891;SDS011;45797;47.466;9.486;2023-01-09T09:37:11;0.35;;;0.30;;
37891;SDS011;45797;47.466;9.486;2023-01-09T09:42:16;0.35;;;0.30;;
37891;SDS011;45797;47.466;9.486;2023-01-09T09:48:14;0.30;;;0.30;;
37891;SDS011;45797;47.466;9.486;2023-01-09T10:03:55;0.40;;;0.30;;
37891;SDS011;45797;47.466;9.486;2023-01-09T10:14:23;1.00;;;0.43;;
37891;SDS011;45797;47.466;9.486;2023-01-09T10:47:17;2.75;;;0.40;;
37891;SDS011;45797;47.466;9.486;2023-01-09T10:52:34;0.32;;;0.30;;
37891;SDS011;45797;47.466;9.486;2023-01-09T10:57:47;0.65;;;0.47;;
37891;SDS011;45797;47.466;9.486;2023-01-09T11:02:51;0.38;;;0.38;;
37891;SDS011;45797;47.466;9.486;2023-01-09T11:13:32;1.75;;;0.40;;
37891;SDS011;45797;47.466;9.486;2023-01-09T11:18:37;7.15;;;0.63;;
37891;SDS011;45797;47.466;9.486;2023-01-09T11:35:25;0.30;;;0.30;;
37891;SDS011;45797;47.466;9.486;2023-01-09T11:40:35;0.93;;;0.45;;
37891;SDS011;45797;47.466;9.486;2023-01-09T11:45:55;0.50;;;0.40;;
37891;SDS011;45797;47.466;9.486;2023-01-09T11:50:58;0.47;;;0.30;;
37891;SDS011;45797;47.466;9.486;2023-01-09T12:17:48;1.20;;;0.40;;
37891;SDS011;45797;47.466;9.486;2023-01-09T12:23:17;2.17;;;0.70;;
37891;SDS011;45797;47.466;9.486;2023-01-09T12:33:57;0.77;;;0.40;;
37891;SDS011;45797;47.466;9.486;2023-01-09T12:50:47;3.80;;;0.60;;
37891;SDS011;45797;47.466;9.486;2023-01-09T12:56:42;0.45;;;0.32;;
37891;SDS011;45797;47.466;9.486;2023-01-09T13:01:49;1.10;;;0.50;;
37891;SDS011;45797;47.466;9.486;2023-01-09T13:06:53;0.75;;;0.40;;
37891;SDS011;45797;47.466;9.486;2023-01-09T13:17:26;1.60;;;0.40;;
37891;SDS011;45797;47.466;9.486;2023-01-09T13:22:48;0.32;;;0.32;;
37891;SDS011;45797;47.466;9.486;2023-01-09T13:33:25;1.52;;;0.35;;
37891;SDS011;45797;47.466;9.486;2023-01-09T13:38:31;1.05;;;0.40;;
37891;SDS011;45797;47.466;9.486;2023-01-09T13:49:04;0.70;;;0.40;;
37891;SDS011;45797;47.466;9.486;2023-01-09T13:54:07;0.60;;;0.40;;
37891;SDS011;45797;47.466;9.486;2023-01-09T14:04:44;0.30;;;0.30;;
37891;SDS011;45797;47.466;9.486;2023-01-09T14:09:54;0.68;;;0.38;;
37891;SDS011;45797;47.466;9.486;2023-01-09T14:15:20;1.58;;;0.40;;
37891;SDS011;45797;47.466;9.486;2023-01-09T14:25:44;0.35;;;0.30;;
37891;SDS011;45797;47.466;9.486;2023-01-09T14:36:02;0.30;;;0.30;;
37891;SDS011;45797;47.466;9.486;2023-01-09T14:52:37;0.35;;;0.35;;
37891;SDS011;45797;47.466;9.486;2023-01-09T14:57:47;0.93;;;0.45;;
37891;SDS011;45797;47.466;9.486;2023-01-09T15:08:00;0.57;;;0.40;;
37891;SDS011;45797;47.466;9.486;2023-01-09T15:13:04;0.90;;;0.45;;
37891;SDS011;45797;47.466;9.486;2023-01-09T15:18:27;0.68;;;0.30;;
37891;SDS011;45797;47.466;9.486;2023-01-09T15:23:39;1.95;;;0.50;;
37891;SDS011;45797;47.466;9.486;2023-01-09T15:28:42;1.60;;;0.50;;
37891;SDS011;45797;47.466;9.486;2023-01-09T15:33:44;0.93;;;0.40;;
37891;SDS011;45797;47.466;9.486;2023-01-09T15:38:53;0.47;;;0.40;;
37891;SDS011;45797;47.466;9.486;2023-01-09T15:43:56;2.50;;;0.60;;
37891;SDS011;45797;47.466;9.486;2023-01-09T15:48:57;0.93;;;0.40;;
37891;SDS011;45797;47.466;9.486;2023-01-09T15:54:04;0.35;;;0.35;;
37891;SDS011;45797;47.466;9.486;2023-01-09T15:59:15;2.92;;;0.70;;
37891;SDS011;45797;47.466;9.486;2023-01-09T16:09:36;4.22;;;0.50;;
37891;SDS011;45797;47.466;9.486;2023-01-09T16:14:37;0.50;;;0.30;;
37891;SDS011;45797;47.466;9.486;2023-01-09T16:19:48;0.32;;;0.32;;
37891;SDS011;45797;47.466;9.486;2023-01-09T16:24:52;1.38;;;0.43;;
37891;SDS011;45797;47.466;9.486;2023-01-09T16:29:55;0.60;;;0.40;;
37891;SDS011;45797;47.466;9.486;2023-01-09T16:35:01;0.40;;;0.40;;
37891;SDS011;45797;47.466;9.486;2023-01-09T16:45:22;0.68;;;0.40;;
37891;SDS011;45797;47.466;9.486;2023-01-09T17:00:40;1.25;;;0.43;;
37891;SDS011;45797;47.466;9.486;2023-01-09T17:05:43;10.00;;;0.60;;
37891;SDS011;45797;47.466;9.486;2023-01-09T17:10:52;0.35;;;0.35;;
37891;SDS011;45797;47.466;9.486;2023-01-09T17:16:08;0.35;;;0.32;;
37891;SDS011;45797;47.466;9.486;2023-01-09T17:21:13;0.30;;;0.30;;
37891;SDS011;45797;47.466;9.486;2023-01-09T17:26:17;0.32;;;0.30;;
37891;SDS011;45797;47.466;9.486;2023-01-09T17:31:38;0.70;;;0.50;;
37891;SDS011;45797;47.466;9.486;2023-01-09T17:36:43;0.32;;;0.32;;
37891;SDS011;45797;47.466;9.486;2023-01-09T17:41:45;1.17;;;0.40;;
37891;SDS011;45797;47.466;9.486;2023-01-09T17:46:45;0.73;;;0.40;;
37891;SDS011;45797;47.466;9.486;2023-01-09T17:51:47;0.88;;;0.50;;
37891;SDS011;45797;47.466;9.486;2023-01-09T17:56:55;0.30;;;0.30;;
37891;SDS011;45797;47.466;9.486;2023-01-09T18:02:03;0.30;;;0.30;;
37891;SDS011;45797;47.466;9.486;2023-01-09T18:07:04;0.30;;;0.30;;
37891;SDS011;45797;47.466;9.486;2023-01-09T18:12:05;0.95;;;0.35;;
37891;SDS011;45797;47.466;9.486;2023-01-09T18:22:23;0.30;;;0.30;;
37891;SDS011;45797;47.466;9.486;2023-01-09T18:27:34;0.30;;;0.30;;
37891;SDS011;45797;47.466;9.486;2023-01-09T18:32:45;0.30;;;0.30;;
37891;SDS011;45797;47.466;9.486;2023-01-09T18:38:01;2.13;;;0.40;;
37891;SDS011;45797;47.466;9.486;2023-01-09T18:43:02;0.40;;;0.40;;
37891;SDS011;45797;47.466;9.486;2023-01-09T18:48:13;0.60;;;0.40;;
37891;SDS011;45797;47.466;9.486;2023-01-09T18:53:14;1.02;;;0.40;;
37891;SDS011;45797;47.466;9.486;2023-01-09T18:58:15;0.68;;;0.47;;
37891;SDS011;45797;47.466;9.486;2023-01-09T19:03:20;0.50;;;0.30;;
37891;SDS011;45797;47.466;9.486;2023-01-09T19:08:21;0.47;;;0.40;;
37891;SDS011;45797;47.466;9.486;2023-01-09T19:19:11;0.40;;;0.40;;
37891;SDS011;45797;47.466;9.486;2023-01-09T19:24:11;0.50;;;0.40;;
37891;SDS011;45797;47.466;9.486;2023-01-09T19:34:18;4.53;;;0.50;;
37891;SDS011;45797;47.466;9.486;2023-01-09T19:44:40;1.20;;;0.38;;
37891;SDS011;45797;47.466;9.486;2023-01-09T19:49:41;0.77;;;0.40;;
37891;SDS011;45797;47.466;9.486;2023-01-09T19:54:42;0.75;;;0.47;;
37891;SDS011;45797;47.466;9.486;2023-01-09T19:59:42;0.40;;;0.40;;
37891;SDS011;45797;47.466;9.486;2023-01-09T20:04:45;0.75;;;0.40;;
37891;SDS011;45797;47.466;9.486;2023-01-09T20:09:46;0.68;;;0.40;;
37891;SDS011;45797;47.466;9.486;2023-01-09T20:14:51;0.55;;;0.40;;
37891;SDS011;45797;47.466;9.486;2023-01-09T20:19:52;1.00;;;0.50;;
37891;SDS011;45797;47.466;9.486;2023-01-09T20:24:53;0.85;;;0.60;;
37891;SDS011;45797;47.466;9.486;2023-01-09T20:29:54;1.27;;;0.50;;
37891;SDS011;45797;47.466;9.486;2023-01-09T20:34:55;1.13;;;0.50;;
37891;SDS011;45797;47.466;9.486;2023-01-09T20:39:55;0.35;;;0.30;;
37891;SDS011;45797;47.466;9.486;2023-01-09T20:44:57;0.45;;;0.40;;
37891;SDS011;45797;47.466;9.486;2023-01-09T20:50:05;0.63;;;0.43;;
37891;SDS011;45797;47.466;9.486;2023-01-09T20:55:06;0.68;;;0.40;;
37891;SDS011;45797;47.466;9.486;2023-01-09T21:00:08;3.80;;;0.50;;
37891;SDS011;45797;47.466;9.486;2023-01-09T21:05:09;0.47;;;0.40;;
37891;SDS011;45797;47.466;9.486;2023-01-09T21:10:10;0.98;;;0.65;;
37891;SDS011;45797;47.466;9.486;2023-01-09T21:16:26;1.85;;;0.32;;
37891;SDS011;45797;47.466;9.486;2023-01-09T21:21:26;0.68;;;0.50;;
37891;SDS011;45797;47.466;9.486;2023-01-09T21:31:36;0.77;;;0.50;;
37891;SDS011;45797;47.466;9.486;2023-01-09T21:41:43;1.40;;;0.50;;
37891;SDS011;45797;47.466;9.486;2023-01-09T21:47:09;0.90;;;0.50;;
37891;SDS011;45797;47.466;9.486;2023-01-09T21:52:10;0.45;;;0.40;;
37891;SDS011;45797;47.466;9.486;2023-01-09T21:57:13;1.77;;;0.47;;
37891;SDS011;45797;47.466;9.486;2023-01-09T22:02:24;0.98;;;0.60;;
37891;SDS011;45797;47.466;9.486;2023-01-09T22:12:31;1.95;;;0.60;;
37891;SDS011;45797;47.466;9.486;2023-01-09T22:17:34;1.35;;;0.50;;
37891;SDS011;45797;47.466;9.486;2023-01-09T22:32:47;0.57;;;0.43;;
37891;SDS011;45797;47.466;9.486;2023-01-09T22:37:56;0.40;;;0.40;;
37891;SDS011;45797;47.466;9.486;2023-01-09T22:42:57;0.90;;;0.40;;
37891;SDS011;45797;47.466;9.486;2023-01-09T22:48:00;0.30;;;0.30;;
37891;SDS011;45797;47.466;9.486;2023-01-09T22:53:00;0.65;;;0.50;;
37891;SDS011;45797;47.466;9.486;2023-01-09T22:58:00;0.45;;;0.40;;
37891;SDS011;45797;47.466;9.486;2023-01-09T23:03:00;0.75;;;0.50;;
37891;SDS011;45797;47.466;9.486;2023-01-09T23:08:16;0.30;;;0.30;;
37891;SDS011;45797;47.466;9.486;2023-01-09T23:13:25;0.45;;;0.40;;
37891;SDS011;45797;47.466;9.486;2023-01-09T23:18:27;0.52;;;0.40;;
37891;SDS011;45797;47.466;9.486;2023-01-09T23:23:37;0.50;;;0.40;;
37891;SDS011;45797;47.466;9.486;2023-01-09T23:33:44;0.40;;;0.40;;
37891;SDS011;45797;47.466;9.486;2023-01-09T23:38:46;0.30;;;0.30;;
37891;SDS011;45797;47.466;9.486;2023-01-09T23:43:47;0.30;;;0.30;;
37891;SDS011;45797;47.466;9.486;2023-01-09T23:49:03;0.60;;;0.40;;
37891;SDS011;45797;47.466;9.486;2023-01-09T23:54:10;0.30;;;0.30;;
37891;SDS011;45797;47.466;9.486;2023-01-09T23:59:11;0.30;;;0.30;;
